createdAt,value
2023-05-14T00:00:44.549Z,15.7353
2023-05-14T00:01:46.942Z,15.9875
2023-05-14T00:02:49.287Z,15.4740
2023-05-14T00:03:51.695Z,15.3091
2023-05-14T00:04:53.897Z,14.5588
2023-05-14T00:05:56.238Z,15.0515
2023-05-14T00:06:58.579Z,15.5085
2023-05-14T00:08:00.921Z,15.1536
2023-05-14T00:09:03.258Z,15.1062
2023-05-14T00:10:05.605Z,15.2388
2023-05-14T00:11:08.047Z,15.1070
2023-05-14T00:12:10.304Z,15.0109
2023-05-14T00:13:12.591Z,15.3978
2023-05-14T00:14:14.946Z,15.6862
2023-05-14T00:15:17.270Z,15.5332
2023-05-14T00:16:19.662Z,15.0026
2023-05-14T00:17:21.975Z,15.1526
2023-05-14T00:18:24.312Z,15.3890
2023-05-14T00:19:26.717Z,15.2000
2023-05-14T00:20:28.956Z,14.6399
2023-05-14T00:21:31.355Z,14.9876
2023-05-14T00:22:33.647Z,15.5668
2023-05-14T00:23:36.078Z,15.5208
2023-05-14T00:24:38.975Z,14.9562
2023-05-14T00:25:40.824Z,14.8196
2023-05-14T00:26:43.973Z,15.0334
2023-05-14T00:27:45.422Z,15.3365
2023-05-14T00:28:47.729Z,15.4756
2023-05-14T00:29:50.777Z,15.4333
2023-05-14T00:30:52.644Z,15.2410
2023-05-14T00:31:54.809Z,15.3552
2023-05-14T00:32:58.112Z,15.3866
2023-05-14T00:33:59.467Z,15.6436
2023-05-14T00:35:01.919Z,15.6894
2023-05-14T00:36:04.423Z,15.5606
2023-05-14T00:37:06.926Z,15.3011
2023-05-14T00:38:09.798Z,15.0982
2023-05-14T00:39:11.061Z,14.9773
2023-05-14T00:40:13.650Z,15.3680
2023-05-14T00:41:16.187Z,15.5483
2023-05-14T00:42:18.187Z,15.7956
2023-05-14T00:43:20.733Z,15.7030
2023-05-14T00:44:22.873Z,15.0710
2023-05-14T00:45:25.354Z,15.5009
2023-05-14T00:46:27.608Z,15.6990
2023-05-14T00:47:30.674Z,15.6146
2023-05-14T00:48:32.433Z,14.9854
2023-05-14T00:49:34.776Z,15.0430
2023-05-14T00:50:36.998Z,14.9050
2023-05-14T00:51:39.185Z,14.6358
2023-05-14T00:52:41.527Z,15.1571
2023-05-14T00:53:43.995Z,15.3572
2023-05-14T00:54:46.261Z,14.8225
2023-05-14T00:55:49.062Z,15.2297
2023-05-14T00:56:51.096Z,15.1084
2023-05-14T00:57:53.311Z,14.8147
2023-05-14T00:58:55.492Z,14.5419
2023-05-14T00:59:58.031Z,14.5353
2023-05-14T01:01:00.779Z,14.4099
2023-05-14T01:02:02.710Z,14.5764
2023-05-14T01:03:05.192Z,14.9250
2023-05-14T01:04:07.936Z,15.2646
2023-05-14T01:05:09.707Z,15.3487
2023-05-14T01:06:11.975Z,14.7372
2023-05-14T01:07:14.346Z,14.8943
2023-05-14T01:08:16.545Z,14.8928
2023-05-14T01:09:18.957Z,15.1175
2023-05-14T01:10:21.624Z,15.3784
2023-05-14T01:11:23.745Z,15.6304
2023-05-14T01:12:26.621Z,15.7733
2023-05-14T01:13:28.285Z,15.7531
2023-05-14T01:14:30.659Z,15.4253
2023-05-14T01:15:33.070Z,15.4376
2023-05-14T01:16:35.331Z,15.3374
2023-05-14T01:17:37.671Z,15.1737
2023-05-14T01:18:39.929Z,14.8129
2023-05-14T01:19:42.343Z,14.7302
2023-05-14T01:20:44.761Z,14.7103
2023-05-14T01:21:47.043Z,14.7125
2023-05-14T01:22:49.408Z,14.5287
2023-05-14T01:23:51.598Z,14.3305
2023-05-14T01:24:54.015Z,14.7136
2023-05-14T01:25:56.415Z,14.7613
2023-05-14T01:26:58.708Z,14.9446
2023-05-14T01:28:00.930Z,14.5258
2023-05-14T01:29:03.625Z,14.8005
2023-05-14T01:30:05.681Z,14.2568
2023-05-14T01:31:08.102Z,14.6113
2023-05-14T01:32:10.693Z,14.4626
2023-05-14T01:33:12.840Z,14.7515
2023-05-14T01:34:15.201Z,15.0784
2023-05-14T01:35:17.360Z,15.0465
2023-05-14T01:36:20.106Z,14.6823
2023-05-14T01:37:22.190Z,15.0232
2023-05-14T01:38:24.456Z,14.8038
2023-05-14T01:39:26.682Z,15.0069
2023-05-14T01:40:28.950Z,15.2415
2023-05-14T01:41:31.477Z,15.3605
2023-05-14T01:42:33.694Z,15.2347
2023-05-14T01:43:36.228Z,14.5980
2023-05-14T01:44:38.315Z,14.6847
2023-05-14T01:45:40.835Z,14.9995
2023-05-14T01:46:43.273Z,15.0256
2023-05-14T01:47:45.613Z,15.2784
2023-05-14T01:48:47.749Z,14.7955
2023-05-14T01:49:50.235Z,14.6938
2023-05-14T01:50:52.439Z,15.0890
2023-05-14T01:51:54.963Z,15.2922
2023-05-14T01:52:57.358Z,14.9878
2023-05-14T01:53:59.664Z,15.1418
2023-05-14T01:55:02.079Z,15.3045
2023-05-14T01:56:04.101Z,15.3541
2023-05-14T01:57:06.391Z,15.3391
2023-05-14T01:58:08.801Z,14.8914
2023-05-14T01:59:11.205Z,15.1191
2023-05-14T02:00:13.532Z,15.2660
2023-05-14T02:01:16.315Z,15.3318
2023-05-14T02:02:18.980Z,15.4010
2023-05-14T02:03:20.654Z,15.4162
2023-05-14T02:04:22.846Z,15.3552
2023-05-14T02:05:25.327Z,15.3376
2023-05-14T02:06:27.983Z,15.3105
2023-05-14T02:07:29.940Z,15.2183
2023-05-14T02:08:32.655Z,15.1008
2023-05-14T02:09:34.581Z,15.1965
2023-05-14T02:10:36.829Z,15.2502
2023-05-14T02:11:39.247Z,15.2690
2023-05-14T02:12:41.712Z,15.3069
2023-05-14T02:13:43.926Z,15.3492
2023-05-14T02:14:46.199Z,15.3932
2023-05-14T02:15:48.708Z,15.2907
2023-05-14T02:16:50.945Z,15.2526
2023-05-14T02:17:53.264Z,15.2324
2023-05-14T02:18:55.937Z,14.7376
2023-05-14T02:19:58.053Z,14.6540
2023-05-14T02:21:00.287Z,14.9148
2023-05-14T02:22:02.690Z,15.0603
2023-05-14T02:23:05.714Z,14.9266
2023-05-14T02:24:07.240Z,14.7753
2023-05-14T02:25:09.947Z,14.5755
2023-05-14T02:26:12.870Z,14.7452
2023-05-14T02:27:14.857Z,14.9437
2023-05-14T02:28:17.013Z,14.9144
2023-05-14T02:29:19.136Z,14.4106
2023-05-14T02:30:22.144Z,14.7257
2023-05-14T02:31:24.074Z,15.0793
2023-05-14T02:32:26.346Z,14.9582
2023-05-14T02:33:28.678Z,15.1102
2023-05-14T02:34:30.717Z,15.2833
2023-05-14T02:35:33.249Z,15.3612
2023-05-14T02:36:35.775Z,15.1384
2023-05-14T02:37:38.136Z,14.6767
2023-05-14T02:38:40.145Z,15.0174
2023-05-14T02:39:42.328Z,14.8220
2023-05-14T02:40:44.671Z,14.9539
2023-05-14T02:41:47.007Z,15.1890
2023-05-14T02:42:49.358Z,15.2454
2023-05-14T02:43:51.709Z,15.0086
2023-05-14T02:44:54.290Z,14.3058
2023-05-14T02:45:56.355Z,14.5221
2023-05-14T02:46:58.792Z,14.7635
2023-05-14T02:48:01.088Z,15.0492
2023-05-14T02:49:03.392Z,15.2014
2023-05-14T02:50:06.027Z,15.0720
2023-05-14T02:51:08.081Z,15.0866
2023-05-14T02:52:10.437Z,14.8079
2023-05-14T02:53:12.708Z,14.7074
2023-05-14T02:54:15.050Z,14.7448
2023-05-14T02:55:17.431Z,14.9617
2023-05-14T02:56:19.719Z,15.0811
2023-05-14T02:57:22.097Z,15.0420
2023-05-14T02:58:27.435Z,14.9513
2023-05-14T02:59:26.980Z,14.5715
2023-05-14T03:00:29.072Z,14.5461
2023-05-14T03:01:32.041Z,14.2686
2023-05-14T03:02:33.970Z,14.3759
2023-05-14T03:03:36.108Z,14.7969
2023-05-14T03:04:38.718Z,14.8946
2023-05-14T03:05:41.042Z,14.3925
2023-05-14T03:06:43.122Z,14.1740
2023-05-14T03:07:45.466Z,14.6195
2023-05-14T03:08:47.793Z,14.9571
2023-05-14T03:09:50.095Z,14.9206
2023-05-14T03:10:52.468Z,14.6053
2023-05-14T03:11:54.780Z,14.8503
2023-05-14T03:12:57.166Z,15.0034
2023-05-14T03:13:59.503Z,14.5369
2023-05-14T03:15:02.104Z,14.3349
2023-05-14T03:16:04.150Z,14.8118
2023-05-14T03:17:06.574Z,14.9793
2023-05-14T03:18:09.134Z,15.1435
2023-05-14T03:19:11.363Z,15.1008
2023-05-14T03:20:13.584Z,15.1233
2023-05-14T03:21:15.997Z,14.8665
2023-05-14T03:22:18.371Z,14.9531
2023-05-14T03:23:20.515Z,14.9918
2023-05-14T03:24:22.974Z,15.0706
2023-05-14T03:25:25.783Z,14.7085
2023-05-14T03:26:27.935Z,14.9003
2023-05-14T03:27:30.636Z,15.0383
2023-05-14T03:28:32.201Z,15.0786
2023-05-14T03:29:34.513Z,15.1487
2023-05-14T03:30:36.996Z,15.1647
2023-05-14T03:31:39.214Z,15.1640
2023-05-14T03:32:41.618Z,15.2429
2023-05-14T03:33:44.044Z,15.1055
2023-05-14T03:34:46.312Z,15.0250
2023-05-14T03:35:48.555Z,15.0452
2023-05-14T03:36:52.007Z,14.8783
2023-05-14T03:37:53.228Z,14.4408
2023-05-14T03:38:55.570Z,14.7196
2023-05-14T03:39:58.037Z,14.9812
2023-05-14T03:41:00.453Z,15.1838
2023-05-14T03:42:02.881Z,15.1594
2023-05-14T03:43:04.904Z,14.9179
2023-05-14T03:44:07.275Z,14.5478
2023-05-14T03:45:09.615Z,14.7497
2023-05-14T03:46:12.258Z,14.7962
2023-05-14T03:47:14.363Z,14.8452
2023-05-14T03:48:16.796Z,14.9591
2023-05-14T03:49:19.016Z,14.7270
2023-05-14T03:50:21.359Z,14.7190
2023-05-14T03:51:23.603Z,14.8983
2023-05-14T03:52:25.942Z,15.0671
2023-05-14T03:53:28.383Z,15.1360
2023-05-14T03:54:30.668Z,15.2025
2023-05-14T03:55:32.925Z,14.7459
2023-05-14T03:56:35.294Z,14.2707
2023-05-14T03:57:37.761Z,14.1231
2023-05-14T03:58:40.069Z,14.6246
2023-05-14T03:59:42.647Z,14.9395
2023-05-14T04:00:44.937Z,14.9558
2023-05-14T04:01:47.290Z,14.9720
2023-05-14T04:02:49.330Z,14.9003
2023-05-14T04:03:51.845Z,14.9433
2023-05-14T04:04:54.438Z,14.9914
2023-05-14T04:05:57.083Z,14.9144
2023-05-14T04:06:58.696Z,15.0307
2023-05-14T04:08:01.013Z,15.1396
2023-05-14T04:09:03.428Z,15.0716
2023-05-14T04:10:06.070Z,15.0735
2023-05-14T04:11:08.061Z,15.0225
2023-05-14T04:12:10.552Z,15.0045
2023-05-14T04:13:13.138Z,14.9571
2023-05-14T04:14:15.212Z,14.9064
2023-05-14T04:15:17.723Z,14.7366
2023-05-14T04:16:19.730Z,14.3578
2023-05-14T04:17:22.090Z,14.3307
2023-05-14T04:18:24.548Z,14.2895
2023-05-14T04:19:26.697Z,14.6821
2023-05-14T04:20:29.190Z,14.9455
2023-05-14T04:21:31.472Z,15.0247
2023-05-14T04:22:33.945Z,15.0775
2023-05-14T04:23:36.134Z,15.0744
2023-05-14T04:24:38.415Z,15.0968
2023-05-14T04:25:40.724Z,15.0420
2023-05-14T04:26:43.180Z,15.0149
2023-05-14T04:27:45.407Z,14.9827
2023-05-14T04:28:47.950Z,14.9223
2023-05-14T04:29:50.329Z,14.8950
2023-05-14T04:30:52.443Z,14.8930
2023-05-14T04:31:54.781Z,14.9621
2023-05-14T04:32:57.131Z,14.9744
2023-05-14T04:33:59.576Z,14.8734
2023-05-14T04:35:01.898Z,14.8258
2023-05-14T04:36:04.088Z,14.9578
2023-05-14T04:37:06.401Z,14.8861
2023-05-14T04:38:08.770Z,14.8467
2023-05-14T04:39:11.180Z,14.9301
2023-05-14T04:40:13.407Z,14.8218
2023-05-14T04:41:15.744Z,14.6596
2023-05-14T04:42:18.080Z,14.8013
2023-05-14T04:43:20.466Z,14.7181
2023-05-14T04:44:22.743Z,14.8453
2023-05-14T04:45:25.086Z,14.9568
2023-05-14T04:46:27.553Z,15.1119
2023-05-14T04:47:29.828Z,15.1097
2023-05-14T04:48:32.084Z,15.1006
2023-05-14T04:49:34.563Z,15.1043
2023-05-14T04:50:36.832Z,15.1616
2023-05-14T04:51:39.097Z,15.1240
2023-05-14T04:52:41.482Z,15.0755
2023-05-14T04:53:45.025Z,15.0368
2023-05-14T04:54:47.410Z,15.0461
2023-05-14T04:55:48.941Z,15.1057
2023-05-14T04:56:50.919Z,15.1340
2023-05-14T04:57:53.169Z,15.1215
2023-05-14T04:58:55.982Z,15.0570
2023-05-14T04:59:57.795Z,15.0319
2023-05-14T05:01:00.504Z,15.0279
2023-05-14T05:02:02.486Z,15.0753
2023-05-14T05:03:05.257Z,15.0948
2023-05-14T05:04:07.205Z,15.0169
2023-05-14T05:05:09.862Z,14.9253
2023-05-14T05:06:12.329Z,14.5944
2023-05-14T05:07:14.143Z,14.6229
2023-05-14T05:08:17.115Z,14.8432
2023-05-14T05:09:19.400Z,15.0481
2023-05-14T05:10:21.272Z,15.1122
2023-05-14T05:11:23.603Z,14.9851
2023-05-14T05:12:25.911Z,15.0332
2023-05-14T05:13:28.270Z,15.2183
2023-05-14T05:14:30.545Z,15.3207
2023-05-14T05:15:33.014Z,15.2989
2023-05-14T05:16:35.559Z,15.2370
2023-05-14T05:17:37.797Z,15.3076
2023-05-14T05:18:40.186Z,15.3178
2023-05-14T05:19:44.118Z,15.2117
2023-05-14T05:20:44.589Z,15.1556
2023-05-14T05:21:47.355Z,15.2511
2023-05-14T05:22:49.395Z,15.3142
2023-05-14T05:23:51.652Z,15.3714
2023-05-14T05:24:54.322Z,15.3921
2023-05-14T05:25:56.349Z,15.2390
2023-05-14T05:26:58.593Z,15.3247
2023-05-14T05:28:00.968Z,15.3806
2023-05-14T05:29:03.298Z,15.4075
2023-05-14T05:30:05.641Z,15.4415
2023-05-14T05:31:08.330Z,15.3725
2023-05-14T05:32:10.435Z,15.3494
2023-05-14T05:33:12.668Z,15.4048
2023-05-14T05:34:14.918Z,15.4004
2023-05-14T05:35:17.343Z,15.0735
2023-05-14T05:36:19.715Z,15.2633
2023-05-14T05:37:22.097Z,15.3745
2023-05-14T05:38:24.298Z,15.3223
2023-05-14T05:39:26.643Z,15.3516
2023-05-14T05:40:28.974Z,15.4091
2023-05-14T05:41:31.321Z,15.2709
2023-05-14T05:42:33.751Z,14.7581
2023-05-14T05:43:36.049Z,15.0855
2023-05-14T05:44:38.462Z,15.3545
2023-05-14T05:45:40.740Z,15.3850
2023-05-14T05:46:43.191Z,15.4353
2023-05-14T05:47:45.488Z,15.4017
2023-05-14T05:48:47.809Z,15.5147
2023-05-14T05:49:50.006Z,15.5521
2023-05-14T05:50:52.377Z,15.6277
2023-05-14T05:51:54.793Z,15.6894
2023-05-14T05:52:57.023Z,15.6930
2023-05-14T05:53:59.339Z,15.7495
2023-05-14T05:55:01.697Z,15.7484
2023-05-14T05:56:04.091Z,15.3639
2023-05-14T05:57:06.456Z,14.7729
2023-05-14T05:58:08.713Z,15.1734
2023-05-14T05:59:11.157Z,15.2368
2023-05-14T06:00:13.484Z,15.2083
2023-05-14T06:01:15.888Z,14.8627
2023-05-14T06:02:18.121Z,14.8667
2023-05-14T06:03:20.410Z,14.9308
2023-05-14T06:04:22.750Z,15.2544
2023-05-14T06:05:25.091Z,15.5395
2023-05-14T06:06:27.372Z,15.6788
2023-05-14T06:07:29.801Z,15.8489
2023-05-14T06:08:32.428Z,15.8712
2023-05-14T06:09:34.401Z,15.8216
2023-05-14T06:10:36.850Z,15.9101
2023-05-14T06:11:39.082Z,15.8714
2023-05-14T06:12:41.444Z,15.7842
2023-05-14T06:13:43.818Z,15.8896
2023-05-14T06:14:46.084Z,15.8783
2023-05-14T06:15:48.407Z,15.9621
2023-05-14T06:16:50.924Z,16.1391
2023-05-14T06:17:53.418Z,16.1658
2023-05-14T06:18:55.505Z,16.1240
2023-05-14T06:19:57.984Z,15.8372
2023-05-14T06:21:00.142Z,15.9805
2023-05-14T06:22:02.791Z,15.6901
2023-05-14T06:23:04.810Z,15.6665
2023-05-14T06:24:07.216Z,15.3124
2023-05-14T06:25:09.610Z,14.8042
2023-05-14T06:26:12.129Z,15.2410
2023-05-14T06:27:14.170Z,15.3120
2023-05-14T06:28:16.442Z,15.4268
2023-05-14T06:29:19.306Z,15.6567
2023-05-14T06:30:21.392Z,15.4320
2023-05-14T06:31:23.449Z,15.4066
2023-05-14T06:32:25.851Z,14.9350
2023-05-14T06:33:28.129Z,14.7921
2023-05-14T06:34:30.551Z,14.9854
2023-05-14T06:35:32.811Z,15.2077
2023-05-14T06:36:35.096Z,14.8761
2023-05-14T06:37:38.247Z,15.1618
2023-05-14T06:38:39.896Z,15.6069
2023-05-14T06:39:42.113Z,15.8387
2023-05-14T06:40:44.512Z,15.8822
2023-05-14T06:41:47.131Z,15.9226
2023-05-14T06:42:49.648Z,15.9518
2023-05-14T06:43:51.580Z,16.0199
2023-05-14T06:44:53.841Z,16.0297
2023-05-14T06:45:56.134Z,16.0664
2023-05-14T06:46:58.572Z,15.7753
2023-05-14T06:48:01.506Z,15.2604
2023-05-14T06:49:03.126Z,15.3828
2023-05-14T06:50:05.435Z,15.7098
2023-05-14T06:51:07.787Z,15.9130
2023-05-14T06:52:10.128Z,15.9910
2023-05-14T06:53:12.431Z,15.6601
2023-05-14T06:54:14.787Z,15.9058
2023-05-14T06:55:17.096Z,16.0707
2023-05-14T06:56:19.447Z,16.0167
2023-05-14T06:57:21.780Z,15.6913
2023-05-14T06:58:24.116Z,15.8322
2023-05-14T06:59:26.552Z,15.3921
2023-05-14T07:00:28.861Z,15.6669
2023-05-14T07:01:31.189Z,15.8497
2023-05-14T07:02:33.496Z,16.0170
2023-05-14T07:03:35.832Z,16.1313
2023-05-14T07:04:39.274Z,16.0623
2023-05-14T07:05:40.609Z,15.9010
2023-05-14T07:06:42.820Z,16.0690
2023-05-14T07:07:45.179Z,16.1759
2023-05-14T07:08:47.482Z,16.1492
2023-05-14T07:09:49.971Z,16.1775
2023-05-14T07:10:52.308Z,15.6460
2023-05-14T07:11:54.624Z,15.7479
2023-05-14T07:12:57.079Z,16.0283
2023-05-14T07:13:59.282Z,16.1171
2023-05-14T07:15:01.585Z,15.8986
2023-05-14T07:16:03.852Z,15.3343
2023-05-14T07:17:06.312Z,15.4752
2023-05-14T07:18:08.548Z,15.5410
2023-05-14T07:19:10.979Z,15.8659
2023-05-14T07:20:13.179Z,16.0715
2023-05-14T07:21:15.555Z,16.1445
2023-05-14T07:22:17.865Z,16.2207
2023-05-14T07:23:20.240Z,16.1634
2023-05-14T07:24:22.512Z,16.1412
2023-05-14T07:25:24.842Z,16.1773
2023-05-14T07:26:27.251Z,15.7667
2023-05-14T07:27:29.569Z,15.9142
2023-05-14T07:28:31.844Z,16.0475
2023-05-14T07:29:34.182Z,16.1373
2023-05-14T07:30:36.516Z,16.1652
2023-05-14T07:31:38.918Z,15.9966
2023-05-14T07:32:41.474Z,15.9224
2023-05-14T07:33:43.526Z,15.9536
2023-05-14T07:34:45.879Z,16.0239
2023-05-14T07:35:48.211Z,15.8881
2023-05-14T07:36:50.563Z,15.8590
2023-05-14T07:37:52.932Z,15.6144
2023-05-14T07:38:55.250Z,15.4889
2023-05-14T07:39:57.591Z,15.7571
2023-05-14T07:40:59.874Z,15.8304
2023-05-14T07:42:02.217Z,15.7435
2023-05-14T07:43:04.584Z,16.0288
2023-05-14T07:44:06.957Z,16.2809
2023-05-14T07:45:09.217Z,16.2686
2023-05-14T07:46:11.591Z,16.2989
2023-05-14T07:47:13.933Z,16.0161
2023-05-14T07:48:16.259Z,16.1167
2023-05-14T07:49:18.555Z,16.3094
2023-05-14T07:50:20.933Z,16.0695
2023-05-14T07:51:23.271Z,15.7077
2023-05-14T07:52:25.562Z,15.8832
2023-05-14T07:53:27.888Z,15.9236
2023-05-14T07:54:30.380Z,15.9130
2023-05-14T07:55:32.597Z,16.1202
2023-05-14T07:56:34.895Z,16.1058
2023-05-14T07:57:37.236Z,16.3138
2023-05-14T07:58:39.557Z,16.1970
2023-05-14T07:59:41.932Z,16.0906
2023-05-14T08:00:44.249Z,16.3909
2023-05-14T08:01:46.611Z,16.5156
2023-05-14T08:02:49.219Z,16.5068
2023-05-14T08:03:51.348Z,16.5639
2023-05-14T08:04:53.647Z,16.6084
2023-05-14T08:05:55.970Z,16.5575
2023-05-14T08:06:58.321Z,16.5606
2023-05-14T08:08:00.613Z,16.5993
2023-05-14T08:09:10.523Z,16.6233
2023-05-14T08:10:05.442Z,16.7023
2023-05-14T08:11:07.711Z,16.8029
2023-05-14T08:12:10.028Z,16.8032
2023-05-14T08:13:12.319Z,16.7500
2023-05-14T08:14:14.746Z,16.7330
2023-05-14T08:15:17.032Z,16.6719
2023-05-14T08:16:19.431Z,16.6128
2023-05-14T08:17:21.773Z,16.7217
2023-05-14T08:18:24.013Z,16.9211
2023-05-14T08:19:26.350Z,16.8494
2023-05-14T08:20:28.846Z,16.7385
2023-05-14T08:21:31.062Z,16.9135
2023-05-14T08:22:33.371Z,16.3887
2023-05-14T08:23:35.968Z,16.6268
2023-05-14T08:26:47.797Z,16.4594
2023-05-14T08:26:47.797Z,17.0784
2023-05-14T08:27:49.854Z,16.6997
2023-05-14T08:28:52.494Z,16.9985
2023-05-14T08:29:54.715Z,17.1886
2023-05-14T08:30:56.981Z,17.4373
2023-05-14T08:32:01.925Z,17.5353
2023-05-14T08:33:01.678Z,17.6425
2023-05-14T08:34:05.088Z,17.1854
2023-05-14T08:35:06.935Z,16.9240
2023-05-14T08:36:08.528Z,17.2862
2023-05-14T08:37:10.899Z,17.4599
2023-05-14T08:38:13.215Z,17.6544
2023-05-14T08:39:15.537Z,17.7707
2023-05-14T08:40:17.881Z,17.7918
2023-05-14T08:41:20.250Z,17.4903
2023-05-14T08:42:22.608Z,16.8439
2023-05-14T08:43:24.882Z,16.5081
2023-05-14T08:44:27.424Z,17.0589
2023-05-14T08:45:29.586Z,17.2691
2023-05-14T08:46:31.920Z,17.1530
2023-05-14T08:47:34.335Z,16.9665
2023-05-14T08:48:37.717Z,17.1514
2023-05-14T08:49:39.089Z,17.2008
2023-05-14T08:50:41.292Z,17.2762
2023-05-14T08:51:43.616Z,17.2372
2023-05-14T08:52:45.941Z,17.0853
2023-05-14T08:53:48.288Z,17.1762
2023-05-14T08:54:50.664Z,17.0883
2023-05-14T08:55:53.220Z,17.3286
2023-05-14T08:56:55.464Z,17.4705
2023-05-14T08:57:58.168Z,17.2749
2023-05-14T08:59:00.022Z,17.1458
2023-05-14T09:00:02.553Z,16.6857
2023-05-14T09:01:04.754Z,17.1198
2023-05-14T09:02:07.145Z,17.4709
2023-05-14T09:03:09.450Z,17.1274
2023-05-14T09:04:11.831Z,17.1792
2023-05-14T09:05:14.163Z,17.5477
2023-05-14T09:06:16.503Z,17.6437
2023-05-14T09:07:18.781Z,17.5348
2023-05-14T09:08:24.298Z,17.6763
2023-05-14T09:09:23.575Z,18.0268
2023-05-14T09:10:26.514Z,18.2093
2023-05-14T09:11:28.149Z,18.1129
2023-05-14T09:12:30.855Z,17.9554
2023-05-14T09:13:33.063Z,18.1205
2023-05-14T09:14:35.147Z,18.0535
2023-05-14T09:15:37.405Z,18.2375
2023-05-14T09:16:39.870Z,18.3335
2023-05-14T09:17:42.234Z,17.6547
2023-05-14T09:18:44.422Z,17.5740
2023-05-14T09:19:46.744Z,17.6006
2023-05-14T09:20:49.057Z,18.1868
2023-05-14T09:21:51.442Z,18.2614
2023-05-14T09:22:53.793Z,18.5206
2023-05-14T09:23:56.055Z,18.6944
2023-05-14T09:24:58.558Z,18.5687
2023-05-14T09:26:00.929Z,18.2429
2023-05-14T09:27:03.115Z,18.0956
2023-05-14T09:28:05.659Z,18.0467
2023-05-14T09:29:08.191Z,18.1944
2023-05-14T09:30:10.270Z,17.9004
2023-05-14T09:31:12.451Z,18.3375
2023-05-14T09:32:14.925Z,18.2413
2023-05-14T09:33:17.195Z,18.3012
2023-05-14T09:34:19.423Z,17.9385
2023-05-14T09:35:21.857Z,17.8960
2023-05-14T09:36:24.164Z,18.2024
2023-05-14T09:37:26.530Z,18.3196
2023-05-14T09:38:28.790Z,18.1456
2023-05-14T09:39:31.270Z,18.1254
2023-05-14T09:40:33.633Z,18.1245
2023-05-14T09:41:35.831Z,17.9656
2023-05-14T09:42:38.160Z,17.8337
2023-05-14T09:43:40.491Z,17.2886
2023-05-14T09:44:42.986Z,17.3459
2023-05-14T09:45:45.179Z,17.4120
2023-05-14T09:46:47.578Z,17.6324
2023-05-14T09:47:49.982Z,17.8722
2023-05-14T09:48:52.218Z,17.8366
2023-05-14T09:49:54.522Z,17.7376
2023-05-14T09:50:56.880Z,18.1123
2023-05-14T09:51:59.223Z,18.3904
2023-05-14T09:53:01.541Z,18.4964
2023-05-14T09:54:03.955Z,18.5958
2023-05-14T09:55:06.202Z,18.5201
2023-05-14T09:56:08.541Z,18.6638
2023-05-14T09:57:10.949Z,18.8129
2023-05-14T09:58:13.241Z,18.0749
2023-05-14T09:59:15.547Z,18.0163
2023-05-14T10:00:17.872Z,18.0568
2023-05-14T10:01:20.308Z,17.9325
2023-05-14T10:02:22.577Z,17.5936
2023-05-14T10:03:24.981Z,18.0128
2023-05-14T10:04:27.411Z,17.8430
2023-05-14T10:05:29.585Z,18.2538
2023-05-14T10:06:32.109Z,18.2684
2023-05-14T10:07:34.260Z,17.8277
2023-05-14T10:08:36.660Z,17.4467
2023-05-14T10:09:39.447Z,17.7715
2023-05-14T10:10:46.613Z,18.0226
2023-05-14T10:11:43.782Z,17.9290
2023-05-14T10:12:46.111Z,17.7617
2023-05-14T10:13:48.329Z,17.1725
2023-05-14T10:14:50.953Z,17.0150
2023-05-14T10:15:53.172Z,17.6390
2023-05-14T10:16:55.466Z,17.4278
2023-05-14T10:17:57.764Z,16.9211
2023-05-14T10:19:00.147Z,16.8216
2023-05-14T10:20:02.422Z,16.6819
2023-05-14T10:21:04.781Z,16.5526
2023-05-14T10:22:07.728Z,16.0924
2023-05-14T10:23:09.396Z,16.0590
2023-05-14T10:24:11.724Z,15.8762
2023-05-14T10:25:14.068Z,15.9300
2023-05-14T10:26:16.513Z,16.4121
2023-05-14T10:27:18.709Z,16.4249
2023-05-14T10:28:22.265Z,16.4452
2023-05-14T10:29:23.409Z,16.4573
2023-05-14T10:30:25.955Z,16.7169
2023-05-14T10:31:28.127Z,17.0097
2023-05-14T10:32:30.413Z,17.3467
2023-05-14T10:33:32.748Z,17.5667
2023-05-14T10:34:35.273Z,17.5955
2023-05-14T10:35:37.435Z,17.4164
2023-05-14T10:36:39.788Z,17.3771
2023-05-14T10:37:42.248Z,17.4297
2023-05-14T10:38:44.448Z,17.5353
2023-05-14T10:39:46.841Z,17.6178
2023-05-14T10:40:51.602Z,17.4843
2023-05-14T10:41:51.482Z,17.2629
2023-05-14T10:42:53.884Z,17.2970
2023-05-14T10:43:56.134Z,17.5842
2023-05-14T10:44:58.722Z,17.3518
2023-05-14T10:46:01.021Z,17.3895
2023-05-14T10:47:03.678Z,17.2684
2023-05-14T10:48:10.286Z,17.3221
2023-05-14T10:49:08.022Z,17.6925
2023-05-14T10:50:11.145Z,17.6274
2023-05-14T10:51:12.832Z,17.7747
2023-05-14T10:52:15.158Z,17.9892
2023-05-14T10:53:17.688Z,18.1781
2023-05-14T10:54:19.676Z,18.0054
2023-05-14T10:55:21.999Z,18.1401
2023-05-14T10:56:24.514Z,18.3448
2023-05-14T10:57:26.739Z,18.0658
2023-05-14T10:58:29.405Z,17.8274
2023-05-14T10:59:31.166Z,18.1209
2023-05-14T11:00:33.517Z,18.1420
2023-05-14T11:01:36.006Z,18.0015
2023-05-14T11:02:38.315Z,18.2113
2023-05-14T11:03:40.848Z,18.3622
2023-05-14T11:04:42.889Z,18.5517
2023-05-14T11:05:45.259Z,18.7407
2023-05-14T11:06:47.646Z,18.8421
2023-05-14T11:07:49.860Z,18.8172
2023-05-14T11:08:52.226Z,18.9483
2023-05-14T11:09:54.549Z,18.5985
2023-05-14T11:10:56.877Z,18.7601
2023-05-14T11:11:59.325Z,19.0212
2023-05-14T11:13:01.558Z,19.1794
2023-05-14T11:14:03.899Z,19.1991
2023-05-14T11:15:06.418Z,19.2165
2023-05-14T11:16:21.894Z,19.1704
2023-05-14T11:17:11.303Z,19.3741
2023-05-14T11:18:13.316Z,19.6630
2023-05-14T11:19:15.861Z,19.7977
2023-05-14T11:20:18.031Z,19.7240
2023-05-14T11:21:20.395Z,19.8724
2023-05-14T11:22:22.823Z,19.8342
2023-05-14T11:23:24.917Z,19.8789
2023-05-14T11:24:27.268Z,20.0568
2023-05-14T11:25:29.605Z,19.4916
2023-05-14T11:26:32.063Z,19.5456
2023-05-14T11:27:34.315Z,19.5369
2023-05-14T11:28:36.720Z,19.5700
2023-05-14T11:29:38.962Z,19.6742
2023-05-14T11:30:41.299Z,19.9819
2023-05-14T11:31:43.662Z,19.8788
2023-05-14T11:32:46.259Z,19.9002
2023-05-14T11:33:48.328Z,20.2100
2023-05-14T11:34:50.658Z,20.4553
2023-05-14T11:35:53.091Z,20.3857
2023-05-14T11:36:55.343Z,20.3057
2023-05-14T11:37:57.669Z,20.6757
2023-05-14T11:39:00.050Z,20.9717
2023-05-14T11:40:02.417Z,21.0393
2023-05-14T11:41:04.685Z,21.1159
2023-05-14T11:42:07.022Z,21.2548
2023-05-14T11:43:09.371Z,21.3723
2023-05-14T11:44:11.764Z,21.4965
2023-05-14T11:45:14.074Z,21.5603
2023-05-14T11:46:16.421Z,21.5612
2023-05-14T11:47:18.754Z,21.4797
2023-05-14T11:48:21.415Z,21.4805
2023-05-14T11:49:23.481Z,20.7113
2023-05-14T11:50:25.911Z,20.8811
2023-05-14T11:51:28.168Z,20.9643
2023-05-14T11:52:30.464Z,20.8047
2023-05-14T11:53:32.822Z,20.7169
2023-05-14T11:54:35.159Z,20.4140
2023-05-14T11:55:37.601Z,20.5276
2023-05-14T11:56:39.838Z,20.5280
2023-05-14T11:57:42.297Z,20.4280
2023-05-14T11:58:44.480Z,20.6715
2023-05-14T11:59:46.827Z,20.6948
2023-05-14T12:00:49.198Z,20.5026
2023-05-14T12:01:51.504Z,20.4746
2023-05-14T12:02:53.941Z,20.4508
2023-05-14T12:03:56.241Z,20.3112
2023-05-14T12:04:58.533Z,20.2100
2023-05-14T12:06:00.915Z,20.1793
2023-05-14T12:07:03.229Z,20.2787
2023-05-14T12:08:05.624Z,20.2410
2023-05-14T12:09:07.916Z,20.1006
2023-05-14T12:10:10.239Z,20.0429
2023-05-14T12:11:12.601Z,20.0147
2023-05-14T12:12:14.969Z,19.9622
2023-05-14T12:13:17.349Z,19.9716
2023-05-14T12:14:19.698Z,19.9198
2023-05-14T12:15:22.024Z,19.8529
2023-05-14T12:16:25.010Z,19.7672
2023-05-14T12:17:27.208Z,19.6112
2023-05-14T12:18:29.161Z,19.5340
2023-05-14T12:19:31.407Z,19.4828
2023-05-14T12:20:33.734Z,19.4230
2023-05-14T12:21:36.232Z,19.4205
2023-05-14T12:22:41.575Z,19.4120
2023-05-14T12:23:42.823Z,19.3215
2023-05-14T12:24:45.600Z,19.1991
2023-05-14T12:25:46.319Z,19.1631
2023-05-14T12:26:48.308Z,19.1644
2023-05-14T12:27:50.762Z,18.6123
2023-05-14T12:28:52.634Z,18.7295
2023-05-14T12:29:54.956Z,18.7910
2023-05-14T12:31:19.850Z,18.7496
2023-05-14T12:31:59.791Z,17.9879
2023-05-14T12:33:02.300Z,17.5272
2023-05-14T12:34:04.743Z,17.1485
2023-05-14T12:35:07.006Z,17.6105